Latest Weather Observations for Bombala AWS

IDN60801

Issued at 11:32 pm EDT Thursday 11 February 2016 (issued every 30 minutes, with the page automatically refreshed every 10 minutes)

About weather observations | Map of weather stations | Latest weather observations for NSW | Other Formats
Station Details ID: 070328 Name: BOMBALA AWS Lat: -37.00 Lon: 149.23 Height: 760.5 m
Data from the previous 72 hours. | See also: Recent months at Bombala AWS
Date/Time
EDT
Temp
°C
App
Temp
°C
Dew
Point
Rel
Hum
%
Delta-T
°C
Wind Press
QNH
hPa
Press
MSL
hPa
Rain
since 9 am
mm
Dir
 
Spd
km/h
Gust
km/h
Spd
kts
Gust
kts
11/11:30pm 14.8 15.6 14.8 100 0.0 SE 4 7 2 4 1019.3 1016.6 0.0
11/11:00pm 14.9 16.5 14.9 100 0.0 CALM 0 0 0 0 1019.8 1017.0 0.0
11/10:30pm 15.3 16.3 15.3 100 0.0 ENE 4 6 2 3 1019.9 1017.1 0.0
11/10:00pm 15.7 17.2 15.7 100 0.0 ENE 2 2 1 1 1019.6 1016.8 0.0
11/09:30pm 15.9 16.7 15.9 100 0.0 NNE 6 7 3 4 1019.0 1016.2 0.0
11/09:00pm 16.1 16.8 16.1 100 0.0 NE 7 11 4 6 1018.8 1016.0 0.0
11/08:30pm 16.3 16.7 16.3 100 0.0 ENE 9 15 5 8 1018.5 1015.7 0.0
11/08:00pm 16.8 17.8 16.8 100 0.0 ENE 7 13 4 7 1018.2 1015.4 0.0
11/07:30pm 17.2 18.0 17.2 100 0.0 ENE 9 13 5 7 1017.7 1014.9 0.0
11/07:00pm 17.6 17.3 17.4 99 0.1 ENE 15 22 8 12 1017.4 1014.6 0.0
11/06:30pm 18.2 17.8 18.0 99 0.1 ENE 17 28 9 15 1017.3 1014.5 0.0
11/06:00pm 19.0 18.5 17.7 92 0.8 NE 17 24 9 13 1016.8 1013.9 0.0
11/05:30pm 19.6 19.0 17.6 88 1.3 ENE 17 28 9 15 1016.6 1013.8 0.0
11/05:00pm 20.7 19.5 17.1 80 2.3 ENE 19 26 10 14 1016.5 1013.7 0.0
11/04:30pm 21.1 20.2 16.9 77 2.6 ENE 17 22 9 12 1016.3 1013.5 0.0
11/04:00pm 21.9 21.7 17.7 77 2.7 ENE 15 24 8 13 1016.5 1013.7 0.0
11/03:30pm 21.8 21.9 17.4 76 2.8 ENE 13 17 7 9 1016.8 1013.9 0.0
11/03:00pm 22.0 22.2 17.6 76 2.8 E 13 19 7 10 1016.9 1014.0 0.0
11/02:30pm 24.0 25.0 17.7 68 4.1 ENE 9 17 5 9 1017.2 1014.4 0.0
11/02:00pm 23.0 24.0 16.8 68 3.9 ESE 7 17 4 9 1017.6 1014.8 0.0
11/01:30pm 21.9 22.6 17.1 74 3.0 ENE 9 15 5 8 1017.9 1015.1 0.0
11/01:00pm 21.4 22.2 16.4 73 3.1 E 7 13 4 7 1018.0 1015.2 0.0
11/12:30pm 20.6 22.0 17.4 82 2.0 E 6 9 3 5 1018.4 1015.6 0.0
11/12:00pm 20.6 22.8 17.4 82 2.0 ENE 2 4 1 2 1018.7 1015.9 0.0
11/11:30am 18.9 21.4 17.2 90 1.1 CALM 0 4 0 2 1018.7 1015.9 0.0
11/11:00am 18.3 21.0 17.8 97 0.3 CALM 0 0 0 0 1018.7 1015.9 0.0
11/10:30am 17.9 20.6 17.7 99 0.1 CALM 0 0 0 0 1018.7 1015.9 0.0
11/10:00am 17.4 19.6 17.4 100 0.0 SE 2 4 1 2 1018.6 1015.8 0.0
11/09:30am 16.7 18.6 16.7 100 0.0 SE 2 4 1 2 1018.6 1015.8 0.0
11/09:00am 16.2 16.9 16.2 100 0.0 S 7 9 4 5 1018.5 1015.7 0.2
11/08:30am 15.6 16.7 15.6 100 0.0 SE 4 6 2 3 1018.4 1015.6 0.2
11/08:00am 15.2 15.8 15.2 100 0.0 SE 6 7 3 4 1018.2 1015.4 0.2
11/07:30am 15.1 15.4 15.1 100 0.0 SSE 7 9 4 5 1017.9 1015.1 0.2
11/07:00am 15.0 15.5 15.0 100 0.0 SSE 6 7 3 4 1017.7 1014.9 0.2
11/06:30am 14.7 16.2 14.7 100 0.0 CALM 0 0 0 0 1017.4 1014.6 0.2
11/06:00am 14.5 15.2 14.5 100 0.0 SSE 4 6 2 3 1017.3 1014.5 0.2
11/05:30am 14.3 14.9 14.3 100 0.0 SSE 4 7 2 4 1017.0 1014.2 0.2
11/05:00am 13.7 14.1 13.7 100 0.0 SE 4 4 2 2 1016.8 1013.9 0.2
11/04:30am 14.0 15.3 14.0 100 0.0 CALM 0 0 0 0 1016.5 1013.7 0.2
11/04:00am 14.6 16.1 14.6 100 0.0 CALM 0 2 0 1 1016.4 1013.6 0.2
11/03:30am 15.1 16.8 15.1 100 0.0 CALM 0 0 0 0 1016.4 1013.6 0.2
11/03:00am 15.3 17.0 15.3 100 0.0 CALM 0 0 0 0 1016.8 1013.9 0.2
11/02:30am 16.1 18.1 16.1 100 0.0 CALM 0 0 0 0 1016.9 1014.0 0.2
11/02:00am 16.2 18.3 16.2 100 0.0 CALM 0 0 0 0 1017.2 1014.4 0.2
11/01:30am 16.6 18.8 16.6 100 0.0 CALM 0 0 0 0 1017.5 1014.7 0.2
11/01:00am 16.8 18.4 16.8 100 0.0 N 4 6 2 3 1017.6 1014.8 0.2
11/12:30am 16.7 18.2 16.7 100 0.0 N 4 9 2 5 1017.8 1015.0 0.2
11/12:00am 16.2 17.1 16.2 100 0.0 NNE 6 11 3 6 1017.7 1014.9 0.2
 
Date/Time
EDT
Temp
°C
App
Temp
°C
Dew
Point
Rel
Hum
%
Delta-T
°C
Wind Press
QNH
hPa
Press
MSL
hPa
Rain
since 9 am
mm
Dir
 
Spd
km/h
Gust
km/h
Spd
kts
Gust
kts
10/11:30pm 16.9 18.5 16.9 100 0.0 NNE 4 7 2 4 1017.9 1015.1 0.2
10/11:00pm 16.5 17.6 16.5 100 0.0 NNE 6 9 3 5 1018.3 1015.5 0.2
10/10:30pm 17.0 18.6 17.0 100 0.0 NE 4 6 2 3 1018.2 1015.4 0.2
10/10:00pm 17.2 19.7 17.2 100 0.0 CALM 0 4 0 2 1018.2 1015.4 0.2
10/09:30pm 17.1 18.4 17.1 100 0.0 SE 6 9 3 5 1017.9 1015.1 0.2
10/09:00pm 17.5 18.4 17.5 100 0.0 SSE 9 13 5 7 1017.8 1015.0 0.2
10/08:30pm 18.0 17.6 18.0 100 0.0 SE 17 20 9 11 1017.7 1014.9 0.2
10/08:00pm 18.7 18.0 18.7 100 0.0 SE 20 26 11 14 1017.0 1014.2 0.2
10/07:30pm 20.3 20.7 19.0 92 0.8 ESE 15 19 8 10 1016.2 1013.4 0.2
10/07:00pm 20.9 21.7 19.0 89 1.2 ESE 13 20 7 11 1016.0 1013.2 0.2
10/06:30pm 21.8 22.5 18.8 83 1.9 ESE 13 20 7 11 1015.2 1012.4 0.2
10/06:00pm 23.0 22.5 17.9 73 3.3 ESE 17 24 9 13 1014.9 1012.1 0.2
10/05:30pm 24.4 23.4 16.6 61 4.9 SE 17 22 9 12 1014.8 1012.0 0.2
10/05:00pm 25.3 25.1 18.5 66 4.4 SE 17 24 9 13 1014.7 1011.9 0.2
10/04:30pm 24.9 24.3 17.6 64 4.7 ESE 17 26 9 14 1014.6 1011.7 0.2
10/04:00pm 25.3 24.3 18.0 64 4.7 SE 20 30 11 16 1014.7 1011.9 0.2
10/03:30pm 25.2 25.5 19.6 71 3.7 ESE 17 24 9 13 1014.8 1012.0 0.2
10/03:00pm 26.3 25.8 18.7 63 5.0 ESE 19 28 10 15 1014.9 1012.1 0.2
10/02:30pm 25.2 24.0 17.4 62 5.0 SE 20 32 11 17 1014.9 1012.1 0.2
10/02:00pm 27.6 26.9 18.6 58 5.9 SSE 20 30 11 16 1015.0 1012.2 0.2
10/01:30pm 27.9 27.6 17.4 52 6.8 SW 15 26 8 14 1015.1 1012.3 0.2
10/01:00pm 27.8 26.3 11.8 37 9.5 W 11 17 6 9 1015.5 1012.6 0.2
10/12:30pm 27.3 26.6 12.1 39 9.1 NNW 7 15 4 8 1015.8 1013.0 0.2
10/12:00pm 26.4 26.5 12.8 43 8.2 N 4 7 2 4 1016.2 1013.4 0.2
10/11:30am 25.0 26.0 14.2 51 6.6 WNW 2 4 1 2 1016.4 1013.6 0.2
10/11:00am 24.1 24.3 14.2 54 6.0 WNW 6 11 3 6 1016.8 1013.9 0.2
10/10:30am 22.7 24.0 17.2 71 3.5 N 6 11 3 6 1016.9 1014.0 0.0
10/10:00am 20.3 20.7 17.3 83 1.9 NNW 11 13 6 7 1017.0 1014.2 0.0
10/09:30am 17.2 18.0 17.2 100 0.0 N 9 13 5 7 1017.2 1014.4 0.0
10/09:00am 14.9 15.2 14.9 100 0.0 NNW 7 9 4 5 1017.4 1014.6 0.0
10/08:30am 13.1 12.9 13.1 100 0.0 NNW 6 7 3 4 1017.3 1014.5 0.0
10/08:00am 11.1 10.7 11.1 100 0.0 WNW 4 4 2 2 1017.3 1014.5 0.0
10/07:30am 9.9 9.9 9.9 100 0.0 CALM 0 2 0 1 1017.1 1014.3 0.0
10/07:00am 9.5 8.7 9.5 100 0.0 WNW 4 4 2 2 1017.1 1014.3 0.0
10/06:30am 9.1 8.2 9.1 100 0.0 WNW 4 6 2 3 1017.0 1014.2 0.0
10/06:00am 9.2 8.3 9.2 100 0.0 NW 4 4 2 2 1016.8 1013.9 0.0
10/05:30am 9.6 9.5 9.6 100 0.0 CALM 0 0 0 0 1016.9 1014.0 0.0
10/05:00am 10.4 9.8 10.4 100 0.0 NNW 4 6 2 3 1016.8 1013.9 0.0
10/04:30am 10.5 9.9 10.5 100 0.0 NNW 4 4 2 2 1016.8 1013.9 0.0
10/04:00am 10.5 9.9 10.5 100 0.0 NNW 4 6 2 3 1017.0 1014.2 0.0
10/03:30am 10.8 9.9 10.8 100 0.0 NW 6 6 3 3 1017.1 1014.3 0.0
10/03:00am 10.8 9.9 10.8 100 0.0 NW 6 6 3 3 1017.3 1014.5 0.0
10/02:30am 11.5 11.2 11.5 100 0.0 NW 4 4 2 2 1017.7 1014.9 0.0
10/02:00am 11.7 11.5 11.7 100 0.0 NW 4 4 2 2 1018.0 1015.2 0.0
10/01:30am 11.7 11.1 11.7 100 0.0 NW 6 7 3 4 1018.5 1015.7 0.0
10/01:00am 11.6 11.0 11.6 100 0.0 W 6 6 3 3 1018.9 1016.1 0.0
10/12:30am 13.0 13.2 13.0 100 0.0 WSW 4 6 2 3 1019.1 1016.3 0.0
10/12:00am 13.2 13.4 13.2 100 0.0 WSW 4 4 2 2 1019.4 1016.7 0.0
 
Date/Time
EDT
Temp
°C
App
Temp
°C
Dew
Point
Rel
Hum
%
Delta-T
°C
Wind Press
QNH
hPa
Press
MSL
hPa
Rain
since 9 am
mm
Dir
 
Spd
km/h
Gust
km/h
Spd
kts
Gust
kts
09/11:30pm 13.9 15.1 13.9 100 0.0 CALM 0 0 0 0 1019.8 1017.0 0.0
09/11:00pm 14.0 15.3 14.0 100 0.0 CALM 0 0 0 0 1020.1 1017.3 0.0
09/10:30pm 14.4 14.7 14.4 100 0.0 N 6 7 3 4 1020.4 1017.6 0.0
09/10:00pm 14.3 14.0 14.3 100 0.0 N 9 11 5 6 1020.6 1017.9 0.0
09/09:30pm 14.7 14.9 14.7 100 0.0 N 7 7 4 4 1020.6 1017.9 0.0
09/09:00pm 15.5 16.0 15.5 100 0.0 NE 7 9 4 5 1020.4 1017.6 0.0
09/08:30pm 15.9 16.1 15.7 99 0.1 NE 9 15 5 8 1020.3 1017.5 0.0
09/08:00pm 16.9 16.8 15.9 94 0.6 NE 11 17 6 9 1020.3 1017.5 0.0
09/07:30pm 18.1 17.4 15.5 85 1.6 ENE 13 17 7 9 1020.1 1017.3 0.0
09/07:00pm 19.7 19.3 15.1 75 2.8 ENE 11 17 6 9 1019.8 1017.0 0.0
09/06:30pm 20.8 19.5 14.7 68 3.7 ENE 15 20 8 11 1019.6 1016.8 0.0
09/06:00pm 21.8 20.3 14.2 62 4.6 ENE 15 20 8 11 1019.6 1016.8 0.0
09/05:30pm 22.9 21.3 13.9 57 5.4 ENE 15 20 8 11 1019.7 1016.9 0.0
09/05:00pm 23.1 21.4 12.4 51 6.3 ENE 13 22 7 12 1020.0 1017.2 0.0
09/04:30pm 23.7 22.0 12.4 49 6.7 ENE 13 20 7 11 1020.2 1017.4 0.0
09/04:00pm 24.0 22.3 12.6 49 6.8 ENE 13 19 7 10 1020.5 1017.8 0.0
09/03:30pm 23.7 21.9 10.7 44 7.5 ENE 11 17 6 9 1020.8 1018.1 0.0
09/03:00pm 23.7 21.9 10.7 44 7.4 ENE 11 19 6 10 1021.3 1018.5 0.0
09/02:30pm 23.8 21.9 10.5 43 7.6 E 11 17 6 9 1021.6 1018.8 0.0
09/02:00pm 23.4 22.0 9.4 41 7.8 E 7 15 4 8 1021.9 1019.2 0.0
09/01:30pm 22.8 21.6 9.6 43 7.4 NNE 6 13 3 7 1022.2 1019.5 0.0
09/01:00pm 22.7 22.0 12.0 50 6.2 NNE 7 13 4 7 1022.5 1019.7 0.0
09/12:30pm 21.9 21.2 11.9 53 5.8 E 7 17 4 9 1022.7 1019.9 0.0
09/12:00pm 21.1 20.6 12.0 56 5.3 E 6 11 3 6 1023.1 1020.4 0.0
09/11:30am 20.1 19.7 12.3 61 4.5 NE 6 11 3 6 1023.3 1020.6 0.0
09/11:00am 19.1 20.1 14.4 74 2.8 NE 2 7 1 4 1023.6 1020.9 0.0
09/10:30am 17.2 18.5 14.1 82 1.8 CALM 0 6 0 3 1023.9 1021.1 0.0
09/10:00am 14.9 15.8 14.1 95 0.5 NNW 2 6 1 3 1024.0 1021.3 0.0
09/09:30am 13.4 14.5 13.4 100 0.0 CALM 0 0 0 0 1024.1 1021.4 0.0
09/09:00am 11.6 11.3 11.6 100 0.0 N 4 4 2 2 1024.1 1021.4 0.2
09/08:30am 9.7 9.7 9.7 100 0.0 CALM 0 0 0 0 1024.0 1021.3 0.2
09/08:00am 8.6 8.3 8.6 100 0.0 CALM 0 0 0 0 1023.7 1021.0 0.2
09/07:30am 7.5 6.2 7.5 100 0.0 NNE 4 6 2 3 1023.5 1020.8 0.2
09/07:00am 7.6 6.3 7.6 100 0.0 NNE 4 6 2 3 1023.5 1020.8 0.2
09/06:30am 6.0 4.7 6.0 100 0.0 NE 2 4 1 2 1023.2 1020.5 0.2
09/06:00am 6.5 5.7 6.5 100 0.0 CALM 0 0 0 0 1023.0 1020.3 0.2
09/05:30am 7.0 5.5 7.0 100 0.0 ENE 4 7 2 4 1022.7 1019.9 0.2
09/05:00am 6.7 4.2 6.7 100 0.0 S 9 11 5 6 1022.5 1019.7 0.0
09/04:30am 7.3 5.9 7.3 100 0.0 SE 4 7 2 4 1022.5 1019.7 0.0
09/04:00am 9.3 8.4 9.3 100 0.0 WSW 4 6 2 3 1022.3 1019.6 0.0
09/03:30am 9.4 8.2 9.4 100 0.0 WSW 6 7 3 4 1022.5 1019.7 0.0
09/03:00am 10.1 8.5 10.1 100 0.0 SSW 9 11 5 6 1022.5 1019.7 0.0
09/02:30am 11.7 10.9 11.7 100 0.0 SW 7 9 4 5 1022.5 1019.7 0.0
09/02:00am 11.8 10.7 11.8 100 0.0 SW 9 11 5 6 1022.8 1020.1 0.0
09/01:30am 12.2 11.6 12.2 100 0.0 SW 7 9 4 5 1023.0 1020.3 0.0
09/01:00am 11.7 11.5 11.7 100 0.0 SW 4 6 2 3 1023.3 1020.6 0.0
09/12:30am 12.8 11.6 12.8 100 0.0 SW 11 13 6 7 1023.3 1020.6 0.0
09/12:00am 12.6 12.7 12.6 100 0.0 WSW 4 7 2 4 1023.4 1020.7 0.0

Other Formats:

Comma delimited format used in spreadsheet applications
http://www.bom.gov.au/fwo/IDN60801/IDN60801.94929.axf

JavaScript Object Notation format (JSON) in row-major order
http://www.bom.gov.au/fwo/IDN60801/IDN60801.94929.json